Airfield :
LOGIN :

Register | Disclaimer

   EN    FR    IT 

 










Legend :    VFR   Marginal VFR   IFR   Intensive IFR   Very Intensive IFR
Visi :
Ceiling :
>= 8 km
>= 3000ft
5 to 8 km
1000 to 3000 ft
1500m to 5 km
500 to 1000 ft
800 to 1500m
200 to 500 ft
< 800m
< 200 ft
Symbols :   Thunderstorms  Fog  Heavy snow  Heavy precipitations  Wind > 20 kt
SIGMETs :     Misc.  Thunderstorms  Icing  Turbulence  Mountain Waves  Volcanic Ashes







- Airport Elevation : 72 ft
- IATA code : UDE


EHVK - Volkel Airbase

CURRENT METAR :
  • 231325Z AUTO 36007KT 330V050 9999 -RA FEW007 SCT011 BKN054 11/10 Q1011 GRN

EXPIRED METARs :
  • 231255Z AUTO 01009KT 330V040 8000 -RA FEW006 BKN015CB BKN017 OVC020 11/10 Q1010 RERA WHT
  • 231225Z AUTO 01006KT 340V040 7000 RA FEW006 SCT007 BKN009 BKN015CB 11/10 Q1010 GRN
  • 231155Z AUTO 36007KT 330V040 5000 RA FEW005 BKN006 BKN008 BKN015CB 11/10 Q1010 YLO
  • 231125Z AUTO 01007KT 330V050 4400 SHRA FEW004 SCT006 BKN007 11/10 Q1010 YLO
  • 231055Z AUTO 01007KT 2800 R24R/P3000N RA SCT004 BKN005 BKN007 BKN015CB 11/11 Q1010 YLO

TAF COR TAF EHVK
Valid from the 23 at 09:00 until the 23 at 21:00 UTC


230901Z 2309/2321 02005KT 6000 -RA FEW010 BKN030
TEMPO 2309/2315 02010G20KT 3000 RA SHRA SCT010 SCT022CB BKN025
PROB30
TEMPO 2310/2315 2500 TSRAGS SCT008 SCT020CB BKN022
BECMG 2315/2318 30006KT 9999 NSW SCT020 BKN050
PROB40
TEMPO 2315/2321 4000 SHRA SCT010 SCT025CB BKN030
No reported NOTAMs for that airfield.



MET'MAP, your aeronautical weather chart ! - Copyright ORBIFLY December 2007 - Disclaimer

ORBIFLY MET'MAP TEAM :

Programming & Development : Alexandra Zaïnal
Concept & Development : Baudouin d'Aumeries
Co-Development & Prog : Marc-Olivier Méhu
Technical & hardware support : Manuel Goepfert

Contact : metmap@orbifly.com




SOURCES & CREDITS :

   NOAA